< < Back
Terminal Aerodrome Forecast


Current Version              Previous Versions:   1  2  3  4  5  6  7  8  9  

Terminal Aerodrome Forecast

330
FTUS42 KTAE 290500
TAFABY
TAF
KABY 290528Z 2906/3006 00000KT P6SM SKC
     FM291400 34010KT P6SM SKC
     FM300000 33003KT P6SM SKC=



Latest METAR

719
SAUS70 KWBC 300256
MTRABY
METAR KABY 300253Z 00000KT 10SM CLR 23/17 A3000 RMK AO2 SLP157 T02330167
51013


USA.gov is the U.S. government's official web portal to all federal, state and local government web resources and services.